sensor_id;sensor_type;location;lat;lon;timestamp;temperature;humidity
285;DHT22;127;48.770;9.212;2023-05-07T00:00:51;14.30;99.90
285;DHT22;127;48.770;9.212;2023-05-07T00:03:21;14.30;99.90
285;DHT22;127;48.770;9.212;2023-05-07T00:05:56;14.20;99.90
285;DHT22;127;48.770;9.212;2023-05-07T00:08:33;14.20;99.90
285;DHT22;127;48.770;9.212;2023-05-07T00:11:04;14.10;99.90
285;DHT22;127;48.770;9.212;2023-05-07T00:13:41;14.00;99.90
285;DHT22;127;48.770;9.212;2023-05-07T00:16:24;13.90;99.90
285;DHT22;127;48.770;9.212;2023-05-07T00:18:58;13.90;99.90
285;DHT22;127;48.770;9.212;2023-05-07T00:21:36;13.80;99.90
285;DHT22;127;48.770;9.212;2023-05-07T00:26:25;13.80;99.90
285;DHT22;127;48.770;9.212;2023-05-07T00:27:24;13.70;99.90
285;DHT22;127;48.770;9.212;2023-05-07T00:30:50;13.70;99.90
285;DHT22;127;48.770;9.212;2023-05-07T00:33:18;13.70;99.90
285;DHT22;127;48.770;9.212;2023-05-07T00:35:53;13.70;99.90
285;DHT22;127;48.770;9.212;2023-05-07T00:38:22;13.60;99.90
285;DHT22;127;48.770;9.212;2023-05-07T00:40:53;13.50;99.90
285;DHT22;127;48.770;9.212;2023-05-07T00:43:30;13.50;99.90
285;DHT22;127;48.770;9.212;2023-05-07T00:45:59;13.50;99.90
285;DHT22;127;48.770;9.212;2023-05-07T00:48:32;13.50;99.90
285;DHT22;127;48.770;9.212;2023-05-07T00:51:01;13.40;99.90
285;DHT22;127;48.770;9.212;2023-05-07T00:53:32;13.40;99.90
285;DHT22;127;48.770;9.212;2023-05-07T00:56:01;13.30;99.90
285;DHT22;127;48.770;9.212;2023-05-07T00:58:36;13.30;99.90
285;DHT22;127;48.770;9.212;2023-05-07T01:01:13;13.40;99.90
285;DHT22;127;48.770;9.212;2023-05-07T01:03:49;13.40;99.90
285;DHT22;127;48.770;9.212;2023-05-07T01:06:20;13.40;99.90
285;DHT22;127;48.770;9.212;2023-05-07T01:08:54;13.30;99.90
285;DHT22;127;48.770;9.212;2023-05-07T01:11:26;13.30;99.90
285;DHT22;127;48.770;9.212;2023-05-07T01:13:55;13.20;99.90
285;DHT22;127;48.770;9.212;2023-05-07T01:16:27;13.30;99.90
285;DHT22;127;48.770;9.212;2023-05-07T01:19:06;13.20;99.90
285;DHT22;127;48.770;9.212;2023-05-07T01:21:38;13.20;99.90
285;DHT22;127;48.770;9.212;2023-05-07T01:24:20;13.20;99.90
285;DHT22;127;48.770;9.212;2023-05-07T01:27:09;13.20;99.90
285;DHT22;127;48.770;9.212;2023-05-07T01:29:42;13.20;99.90
285;DHT22;127;48.770;9.212;2023-05-07T01:32:20;13.20;99.90
285;DHT22;127;48.770;9.212;2023-05-07T01:34:57;13.20;99.90
285;DHT22;127;48.770;9.212;2023-05-07T01:37:29;13.20;99.90
285;DHT22;127;48.770;9.212;2023-05-07T01:40:10;13.20;99.90
285;DHT22;127;48.770;9.212;2023-05-07T01:42:46;13.30;99.90
285;DHT22;127;48.770;9.212;2023-05-07T01:45:17;13.20;99.90
285;DHT22;127;48.770;9.212;2023-05-07T01:47:55;13.20;99.90
285;DHT22;127;48.770;9.212;2023-05-07T01:50:34;13.10;99.90
285;DHT22;127;48.770;9.212;2023-05-07T01:53:05;13.10;99.90
285;DHT22;127;48.770;9.212;2023-05-07T01:55:39;13.10;99.90
285;DHT22;127;48.770;9.212;2023-05-07T01:58:20;13.00;99.90
285;DHT22;127;48.770;9.212;2023-05-07T02:01:02;13.00;99.90
285;DHT22;127;48.770;9.212;2023-05-07T02:03:31;13.00;99.90
285;DHT22;127;48.770;9.212;2023-05-07T02:06:05;12.90;99.90
285;DHT22;127;48.770;9.212;2023-05-07T02:08:34;12.90;99.90
285;DHT22;127;48.770;9.212;2023-05-07T02:11:16;12.80;99.90
285;DHT22;127;48.770;9.212;2023-05-07T02:13:45;12.80;99.90
285;DHT22;127;48.770;9.212;2023-05-07T02:16:44;12.80;99.90
285;DHT22;127;48.770;9.212;2023-05-07T02:19:08;12.80;99.90
285;DHT22;127;48.770;9.212;2023-05-07T02:21:44;12.80;99.90
285;DHT22;127;48.770;9.212;2023-05-07T02:24:17;12.80;99.90
285;DHT22;127;48.770;9.212;2023-05-07T02:26:58;12.80;99.90
285;DHT22;127;48.770;9.212;2023-05-07T02:29:30;12.80;99.90
285;DHT22;127;48.770;9.212;2023-05-07T02:32:09;12.70;99.90
285;DHT22;127;48.770;9.212;2023-05-07T02:34:41;12.70;99.90
285;DHT22;127;48.770;9.212;2023-05-07T02:37:12;12.70;99.90
285;DHT22;127;48.770;9.212;2023-05-07T02:40:02;12.70;99.90
285;DHT22;127;48.770;9.212;2023-05-07T02:42:34;12.60;99.90
285;DHT22;127;48.770;9.212;2023-05-07T02:45:04;12.70;99.90
285;DHT22;127;48.770;9.212;2023-05-07T02:47:36;12.70;99.90
285;DHT22;127;48.770;9.212;2023-05-07T02:50:14;12.60;99.90
285;DHT22;127;48.770;9.212;2023-05-07T02:52:43;12.60;99.90
285;DHT22;127;48.770;9.212;2023-05-07T02:55:13;12.50;99.90
285;DHT22;127;48.770;9.212;2023-05-07T02:57:50;12.50;99.90
285;DHT22;127;48.770;9.212;2023-05-07T03:00:36;12.40;99.90
285;DHT22;127;48.770;9.212;2023-05-07T03:03:07;12.30;99.90
285;DHT22;127;48.770;9.212;2023-05-07T03:05:48;12.30;99.90
285;DHT22;127;48.770;9.212;2023-05-07T03:09:52;12.30;99.90
285;DHT22;127;48.770;9.212;2023-05-07T03:12:06;12.30;99.90
285;DHT22;127;48.770;9.212;2023-05-07T03:14:55;12.20;99.90
285;DHT22;127;48.770;9.212;2023-05-07T03:17:38;12.20;99.90
285;DHT22;127;48.770;9.212;2023-05-07T03:20:08;12.20;99.90
285;DHT22;127;48.770;9.212;2023-05-07T03:22:38;12.20;99.90
285;DHT22;127;48.770;9.212;2023-05-07T03:25:09;12.20;99.90
285;DHT22;127;48.770;9.212;2023-05-07T03:27:54;12.10;99.90
285;DHT22;127;48.770;9.212;2023-05-07T03:33:32;12.00;99.90
285;DHT22;127;48.770;9.212;2023-05-07T03:36:17;12.00;99.90
285;DHT22;127;48.770;9.212;2023-05-07T03:38:53;11.90;99.90
285;DHT22;127;48.770;9.212;2023-05-07T03:41:23;11.90;99.90
285;DHT22;127;48.770;9.212;2023-05-07T03:43:52;11.80;99.90
285;DHT22;127;48.770;9.212;2023-05-07T03:47:34;11.80;99.90
285;DHT22;127;48.770;9.212;2023-05-07T03:49:25;11.80;99.90
285;DHT22;127;48.770;9.212;2023-05-07T03:52:06;11.80;99.90
285;DHT22;127;48.770;9.212;2023-05-07T03:55:23;11.80;99.90
285;DHT22;127;48.770;9.212;2023-05-07T03:58:05;11.80;99.90
285;DHT22;127;48.770;9.212;2023-05-07T04:00:52;11.80;99.90
285;DHT22;127;48.770;9.212;2023-05-07T04:03:39;11.80;99.90
285;DHT22;127;48.770;9.212;2023-05-07T04:06:17;11.80;99.90
285;DHT22;127;48.770;9.212;2023-05-07T04:08:55;11.80;99.90
285;DHT22;127;48.770;9.212;2023-05-07T04:12:11;11.80;99.90
285;DHT22;127;48.770;9.212;2023-05-07T04:14:29;11.80;99.90
285;DHT22;127;48.770;9.212;2023-05-07T04:17:01;11.80;99.90
285;DHT22;127;48.770;9.212;2023-05-07T04:19:36;11.80;99.90
285;DHT22;127;48.770;9.212;2023-05-07T04:22:09;11.80;99.90
285;DHT22;127;48.770;9.212;2023-05-07T04:24:56;11.80;99.90
285;DHT22;127;48.770;9.212;2023-05-07T04:27:26;11.80;99.90
285;DHT22;127;48.770;9.212;2023-05-07T04:29:55;11.80;99.90
285;DHT22;127;48.770;9.212;2023-05-07T04:32:24;11.80;99.90
285;DHT22;127;48.770;9.212;2023-05-07T04:34:57;11.70;99.90
285;DHT22;127;48.770;9.212;2023-05-07T04:37:26;11.80;99.90
285;DHT22;127;48.770;9.212;2023-05-07T04:40:04;11.80;99.90
285;DHT22;127;48.770;9.212;2023-05-07T04:42:39;11.80;99.90
285;DHT22;127;48.770;9.212;2023-05-07T04:45:09;11.80;99.90
285;DHT22;127;48.770;9.212;2023-05-07T04:47:41;11.80;99.90
285;DHT22;127;48.770;9.212;2023-05-07T04:50:13;11.90;99.90
285;DHT22;127;48.770;9.212;2023-05-07T04:52:57;11.90;99.90
285;DHT22;127;48.770;9.212;2023-05-07T04:55:28;11.90;99.90
285;DHT22;127;48.770;9.212;2023-05-07T04:58:13;11.90;99.90
285;DHT22;127;48.770;9.212;2023-05-07T05:00:58;12.00;99.90
285;DHT22;127;48.770;9.212;2023-05-07T05:03:32;12.00;99.90
285;DHT22;127;48.770;9.212;2023-05-07T05:06:07;12.00;99.90
285;DHT22;127;48.770;9.212;2023-05-07T05:08:37;12.00;99.90
285;DHT22;127;48.770;9.212;2023-05-07T05:11:08;12.00;99.90
285;DHT22;127;48.770;9.212;2023-05-07T05:13:51;12.10;99.90
285;DHT22;127;48.770;9.212;2023-05-07T05:16:32;12.10;99.90
285;DHT22;127;48.770;9.212;2023-05-07T05:19:09;12.20;99.90
285;DHT22;127;48.770;9.212;2023-05-07T05:21:50;12.30;99.90
285;DHT22;127;48.770;9.212;2023-05-07T05:24:19;12.40;99.90
285;DHT22;127;48.770;9.212;2023-05-07T05:27:07;12.50;99.90
285;DHT22;127;48.770;9.212;2023-05-07T05:29:44;12.50;99.90
285;DHT22;127;48.770;9.212;2023-05-07T05:32:16;12.60;99.90
285;DHT22;127;48.770;9.212;2023-05-07T05:34:48;12.70;99.90
285;DHT22;127;48.770;9.212;2023-05-07T05:37:26;12.90;99.90
285;DHT22;127;48.770;9.212;2023-05-07T05:40:01;13.00;99.90
285;DHT22;127;48.770;9.212;2023-05-07T05:42:31;13.10;99.90
285;DHT22;127;48.770;9.212;2023-05-07T05:45:14;13.20;99.90
285;DHT22;127;48.770;9.212;2023-05-07T05:47:49;13.20;99.90
285;DHT22;127;48.770;9.212;2023-05-07T05:50:55;13.20;99.90
285;DHT22;127;48.770;9.212;2023-05-07T05:53:50;13.30;99.90
285;DHT22;127;48.770;9.212;2023-05-07T05:56:29;13.40;99.90
285;DHT22;127;48.770;9.212;2023-05-07T05:59:02;13.60;99.90
285;DHT22;127;48.770;9.212;2023-05-07T06:01:32;13.70;99.90
285;DHT22;127;48.770;9.212;2023-05-07T06:04:04;13.70;99.90
285;DHT22;127;48.770;9.212;2023-05-07T06:06:40;13.80;99.90
285;DHT22;127;48.770;9.212;2023-05-07T06:09:23;13.90;99.90
285;DHT22;127;48.770;9.212;2023-05-07T06:11:52;14.00;99.90
285;DHT22;127;48.770;9.212;2023-05-07T06:14:44;14.20;99.90
285;DHT22;127;48.770;9.212;2023-05-07T06:17:24;14.40;99.90
285;DHT22;127;48.770;9.212;2023-05-07T06:19:56;14.60;99.90
285;DHT22;127;48.770;9.212;2023-05-07T06:22:36;14.70;99.90
285;DHT22;127;48.770;9.212;2023-05-07T06:25:19;14.80;99.90
285;DHT22;127;48.770;9.212;2023-05-07T06:27:48;15.00;99.90
285;DHT22;127;48.770;9.212;2023-05-07T06:30:26;15.20;99.90
285;DHT22;127;48.770;9.212;2023-05-07T06:33:04;15.30;99.90
285;DHT22;127;48.770;9.212;2023-05-07T06:35:36;15.30;99.90
285;DHT22;127;48.770;9.212;2023-05-07T06:38:20;15.40;99.90
285;DHT22;127;48.770;9.212;2023-05-07T06:40:52;15.50;99.90
285;DHT22;127;48.770;9.212;2023-05-07T06:43:27;15.50;99.90
285;DHT22;127;48.770;9.212;2023-05-07T06:45:56;15.50;99.90
285;DHT22;127;48.770;9.212;2023-05-07T06:48:25;15.40;99.90
285;DHT22;127;48.770;9.212;2023-05-07T06:50:53;15.40;99.90
285;DHT22;127;48.770;9.212;2023-05-07T06:53:23;15.40;99.90
285;DHT22;127;48.770;9.212;2023-05-07T06:59:10;15.30;99.90
285;DHT22;127;48.770;9.212;2023-05-07T07:01:40;15.40;99.90
285;DHT22;127;48.770;9.212;2023-05-07T07:04:09;15.50;99.90
285;DHT22;127;48.770;9.212;2023-05-07T07:06:47;15.70;99.90
285;DHT22;127;48.770;9.212;2023-05-07T07:09:18;16.00;99.90
285;DHT22;127;48.770;9.212;2023-05-07T07:11:58;16.20;99.90
285;DHT22;127;48.770;9.212;2023-05-07T07:14:30;16.40;99.90
285;DHT22;127;48.770;9.212;2023-05-07T07:16:59;16.60;99.90
285;DHT22;127;48.770;9.212;2023-05-07T07:19:31;16.80;99.90
285;DHT22;127;48.770;9.212;2023-05-07T07:22:05;17.00;99.90
285;DHT22;127;48.770;9.212;2023-05-07T07:24:39;17.30;99.90
285;DHT22;127;48.770;9.212;2023-05-07T07:27:22;17.50;99.90
285;DHT22;127;48.770;9.212;2023-05-07T07:29:54;17.80;99.90
285;DHT22;127;48.770;9.212;2023-05-07T07:32:26;17.90;99.90
285;DHT22;127;48.770;9.212;2023-05-07T07:35:02;18.20;99.90
285;DHT22;127;48.770;9.212;2023-05-07T07:37:31;18.50;99.90
285;DHT22;127;48.770;9.212;2023-05-07T07:40:01;18.70;99.90
285;DHT22;127;48.770;9.212;2023-05-07T07:42:31;19.10;99.90
285;DHT22;127;48.770;9.212;2023-05-07T07:45:07;19.30;99.90
285;DHT22;127;48.770;9.212;2023-05-07T07:47:37;19.50;99.90
285;DHT22;127;48.770;9.212;2023-05-07T07:50:10;19.90;99.90
285;DHT22;127;48.770;9.212;2023-05-07T07:52:39;20.30;99.90
285;DHT22;127;48.770;9.212;2023-05-07T07:55:10;20.50;99.90
285;DHT22;127;48.770;9.212;2023-05-07T07:57:40;20.40;99.90
285;DHT22;127;48.770;9.212;2023-05-07T08:00:13;20.50;99.90
285;DHT22;127;48.770;9.212;2023-05-07T08:02:48;20.60;99.90
285;DHT22;127;48.770;9.212;2023-05-07T08:05:17;20.90;99.90
285;DHT22;127;48.770;9.212;2023-05-07T08:07:47;20.80;99.90
285;DHT22;127;48.770;9.212;2023-05-07T08:10:21;21.00;99.90
285;DHT22;127;48.770;9.212;2023-05-07T08:12:52;21.00;99.90
285;DHT22;127;48.770;9.212;2023-05-07T08:15:26;21.20;99.90
285;DHT22;127;48.770;9.212;2023-05-07T08:17:55;21.30;99.90
285;DHT22;127;48.770;9.212;2023-05-07T08:20:25;21.20;99.90
285;DHT22;127;48.770;9.212;2023-05-07T08:22:57;21.30;99.90
285;DHT22;127;48.770;9.212;2023-05-07T08:25:30;21.40;99.90
285;DHT22;127;48.770;9.212;2023-05-07T08:27:58;21.60;99.90
285;DHT22;127;48.770;9.212;2023-05-07T08:30:36;21.30;99.90
285;DHT22;127;48.770;9.212;2023-05-07T08:33:05;21.50;99.90
285;DHT22;127;48.770;9.212;2023-05-07T08:35:40;21.60;99.90
285;DHT22;127;48.770;9.212;2023-05-07T08:38:13;22.10;99.90
285;DHT22;127;48.770;9.212;2023-05-07T08:40:53;22.40;99.90
285;DHT22;127;48.770;9.212;2023-05-07T08:43:26;22.60;99.90
285;DHT22;127;48.770;9.212;2023-05-07T08:46:01;23.00;99.90
285;DHT22;127;48.770;9.212;2023-05-07T08:48:32;22.90;99.90
285;DHT22;127;48.770;9.212;2023-05-07T08:51:04;23.20;99.90
285;DHT22;127;48.770;9.212;2023-05-07T08:53:41;24.00;99.90
285;DHT22;127;48.770;9.212;2023-05-07T08:56:10;25.30;99.90
285;DHT22;127;48.770;9.212;2023-05-07T08:58:42;26.00;99.90
285;DHT22;127;48.770;9.212;2023-05-07T09:01:18;26.20;99.90
285;DHT22;127;48.770;9.212;2023-05-07T09:03:47;26.90;99.90
285;DHT22;127;48.770;9.212;2023-05-07T09:06:19;27.60;99.90
285;DHT22;127;48.770;9.212;2023-05-07T09:08:53;27.90;99.90
285;DHT22;127;48.770;9.212;2023-05-07T09:11:27;28.20;99.90
285;DHT22;127;48.770;9.212;2023-05-07T09:13:59;28.90;99.90
285;DHT22;127;48.770;9.212;2023-05-07T09:16:34;29.20;99.90
285;DHT22;127;48.770;9.212;2023-05-07T09:19:03;29.50;99.90
285;DHT22;127;48.770;9.212;2023-05-07T09:21:35;29.80;99.90
285;DHT22;127;48.770;9.212;2023-05-07T09:24:14;29.70;99.90
285;DHT22;127;48.770;9.212;2023-05-07T09:26:55;30.70;99.90
285;DHT22;127;48.770;9.212;2023-05-07T09:29:37;31.20;99.90
285;DHT22;127;48.770;9.212;2023-05-07T09:32:14;30.80;99.90
285;DHT22;127;48.770;9.212;2023-05-07T09:34:43;31.10;99.90
285;DHT22;127;48.770;9.212;2023-05-07T09:37:13;31.50;99.90
285;DHT22;127;48.770;9.212;2023-05-07T09:39:43;31.50;99.90
285;DHT22;127;48.770;9.212;2023-05-07T09:42:12;32.30;99.90
285;DHT22;127;48.770;9.212;2023-05-07T09:44:42;32.80;99.90
285;DHT22;127;48.770;9.212;2023-05-07T09:47:19;32.50;99.90
285;DHT22;127;48.770;9.212;2023-05-07T09:49:48;31.90;99.90
285;DHT22;127;48.770;9.212;2023-05-07T09:52:20;31.50;99.90
285;DHT22;127;48.770;9.212;2023-05-07T09:54:50;30.80;99.90
285;DHT22;127;48.770;9.212;2023-05-07T09:57:22;31.70;99.90
285;DHT22;127;48.770;9.212;2023-05-07T10:00:04;32.80;99.90
285;DHT22;127;48.770;9.212;2023-05-07T10:02:37;32.70;99.90
285;DHT22;127;48.770;9.212;2023-05-07T10:05:12;31.50;99.90
285;DHT22;127;48.770;9.212;2023-05-07T10:07:42;31.00;99.90
285;DHT22;127;48.770;9.212;2023-05-07T10:10:11;30.00;99.90
285;DHT22;127;48.770;9.212;2023-05-07T10:12:43;31.20;99.90
285;DHT22;127;48.770;9.212;2023-05-07T10:15:15;31.50;99.90
285;DHT22;127;48.770;9.212;2023-05-07T10:17:50;32.20;99.90
285;DHT22;127;48.770;9.212;2023-05-07T10:20:20;33.00;99.90
285;DHT22;127;48.770;9.212;2023-05-07T10:22:51;33.00;99.90
285;DHT22;127;48.770;9.212;2023-05-07T10:25:26;33.40;99.90
285;DHT22;127;48.770;9.212;2023-05-07T10:28:01;33.80;99.90
285;DHT22;127;48.770;9.212;2023-05-07T10:30:42;34.10;99.90
285;DHT22;127;48.770;9.212;2023-05-07T10:33:24;33.00;99.90
285;DHT22;127;48.770;9.212;2023-05-07T10:35:58;32.30;99.90
285;DHT22;127;48.770;9.212;2023-05-07T10:38:30;31.80;99.90
285;DHT22;127;48.770;9.212;2023-05-07T10:40:59;32.10;99.90
285;DHT22;127;48.770;9.212;2023-05-07T10:43:39;31.80;99.90
285;DHT22;127;48.770;9.212;2023-05-07T10:46:17;32.30;99.90
285;DHT22;127;48.770;9.212;2023-05-07T10:49:10;33.40;99.90
285;DHT22;127;48.770;9.212;2023-05-07T10:51:42;35.10;99.90
285;DHT22;127;48.770;9.212;2023-05-07T10:54:22;34.80;99.90
285;DHT22;127;48.770;9.212;2023-05-07T10:56:53;33.40;99.90
285;DHT22;127;48.770;9.212;2023-05-07T10:59:35;32.80;99.90
285;DHT22;127;48.770;9.212;2023-05-07T11:02:07;32.60;99.90
285;DHT22;127;48.770;9.212;2023-05-07T11:04:39;32.80;99.90
285;DHT22;127;48.770;9.212;2023-05-07T11:07:32;33.90;99.90
285;DHT22;127;48.770;9.212;2023-05-07T11:10:05;34.30;99.90
285;DHT22;127;48.770;9.212;2023-05-07T11:12:51;32.50;99.90
285;DHT22;127;48.770;9.212;2023-05-07T11:15:37;31.60;99.90
285;DHT22;127;48.770;9.212;2023-05-07T11:18:07;31.30;99.90
285;DHT22;127;48.770;9.212;2023-05-07T11:20:53;29.90;99.90
285;DHT22;127;48.770;9.212;2023-05-07T11:26:21;30.00;99.90
285;DHT22;127;48.770;9.212;2023-05-07T11:28:51;30.20;99.90
285;DHT22;127;48.770;9.212;2023-05-07T11:31:22;29.80;99.90
285;DHT22;127;48.770;9.212;2023-05-07T11:33:52;29.80;99.90
285;DHT22;127;48.770;9.212;2023-05-07T11:36:23;28.70;99.90
285;DHT22;127;48.770;9.212;2023-05-07T11:38:53;29.30;99.90
285;DHT22;127;48.770;9.212;2023-05-07T11:41:21;29.00;99.90
285;DHT22;127;48.770;9.212;2023-05-07T11:43:57;28.90;99.90
285;DHT22;127;48.770;9.212;2023-05-07T11:46:28;27.80;99.90
285;DHT22;127;48.770;9.212;2023-05-07T11:48:57;27.80;99.90
285;DHT22;127;48.770;9.212;2023-05-07T11:51:29;27.50;99.90
285;DHT22;127;48.770;9.212;2023-05-07T11:53:58;27.20;99.90
285;DHT22;127;48.770;9.212;2023-05-07T11:56:27;26.30;99.90
285;DHT22;127;48.770;9.212;2023-05-07T11:58:55;25.80;99.90
285;DHT22;127;48.770;9.212;2023-05-07T12:01:24;25.60;99.90
285;DHT22;127;48.770;9.212;2023-05-07T12:03:53;24.80;99.90
285;DHT22;127;48.770;9.212;2023-05-07T12:06:22;24.40;99.90
285;DHT22;127;48.770;9.212;2023-05-07T12:08:54;24.30;99.90
285;DHT22;127;48.770;9.212;2023-05-07T12:11:24;23.90;99.90
285;DHT22;127;48.770;9.212;2023-05-07T12:13:54;23.80;99.90
285;DHT22;127;48.770;9.212;2023-05-07T12:16:23;23.60;99.90
285;DHT22;127;48.770;9.212;2023-05-07T12:18:53;23.80;99.90
285;DHT22;127;48.770;9.212;2023-05-07T12:21:22;23.80;99.90
285;DHT22;127;48.770;9.212;2023-05-07T12:24:01;23.90;99.90
285;DHT22;127;48.770;9.212;2023-05-07T12:26:31;23.80;99.90
285;DHT22;127;48.770;9.212;2023-05-07T12:29:00;23.40;99.90
285;DHT22;127;48.770;9.212;2023-05-07T12:31:29;23.10;99.90
285;DHT22;127;48.770;9.212;2023-05-07T12:33:58;22.20;99.90
285;DHT22;127;48.770;9.212;2023-05-07T12:36:26;21.90;99.90
285;DHT22;127;48.770;9.212;2023-05-07T12:39:07;21.30;99.90
285;DHT22;127;48.770;9.212;2023-05-07T12:41:51;20.50;99.90
285;DHT22;127;48.770;9.212;2023-05-07T12:44:24;20.00;99.90
285;DHT22;127;48.770;9.212;2023-05-07T12:46:55;19.50;99.90
285;DHT22;127;48.770;9.212;2023-05-07T12:49:28;19.00;99.90
285;DHT22;127;48.770;9.212;2023-05-07T12:51:57;18.30;99.90
285;DHT22;127;48.770;9.212;2023-05-07T12:54:33;17.70;99.90
285;DHT22;127;48.770;9.212;2023-05-07T13:00:06;16.70;99.90
285;DHT22;127;48.770;9.212;2023-05-07T13:03:01;16.30;99.90
285;DHT22;127;48.770;9.212;2023-05-07T13:05:33;16.10;99.90
285;DHT22;127;48.770;9.212;2023-05-07T13:08:09;16.00;99.90
285;DHT22;127;48.770;9.212;2023-05-07T13:10:48;15.80;99.90
285;DHT22;127;48.770;9.212;2023-05-07T13:13:25;15.30;99.90
285;DHT22;127;48.770;9.212;2023-05-07T13:15:54;15.10;99.90
285;DHT22;127;48.770;9.212;2023-05-07T13:18:24;14.80;1.00
285;DHT22;127;48.770;9.212;2023-05-07T13:20:53;14.30;99.90
285;DHT22;127;48.770;9.212;2023-05-07T13:23:22;13.80;1.00
285;DHT22;127;48.770;9.212;2023-05-07T13:25:55;13.20;1.00
285;DHT22;127;48.770;9.212;2023-05-07T13:28:25;13.20;1.00
285;DHT22;127;48.770;9.212;2023-05-07T13:30:54;13.30;1.00
285;DHT22;127;48.770;9.212;2023-05-07T13:33:26;13.40;1.00
285;DHT22;127;48.770;9.212;2023-05-07T13:35:54;13.50;1.00
285;DHT22;127;48.770;9.212;2023-05-07T13:41:53;13.30;1.00
285;DHT22;127;48.770;9.212;2023-05-07T13:44:26;13.30;1.00
285;DHT22;127;48.770;9.212;2023-05-07T13:46:55;13.50;1.00
285;DHT22;127;48.770;9.212;2023-05-07T13:49:23;13.60;1.00
285;DHT22;127;48.770;9.212;2023-05-07T13:51:52;13.70;1.00
285;DHT22;127;48.770;9.212;2023-05-07T13:54:21;13.90;1.00
285;DHT22;127;48.770;9.212;2023-05-07T13:56:50;14.00;1.00
285;DHT22;127;48.770;9.212;2023-05-07T13:59:21;13.80;1.00
285;DHT22;127;48.770;9.212;2023-05-07T14:01:50;13.70;1.00
285;DHT22;127;48.770;9.212;2023-05-07T14:04:18;13.80;1.00
285;DHT22;127;48.770;9.212;2023-05-07T14:06:47;13.70;1.00
285;DHT22;127;48.770;9.212;2023-05-07T14:09:16;13.50;1.00
285;DHT22;127;48.770;9.212;2023-05-07T14:12:02;13.60;1.00
285;DHT22;127;48.770;9.212;2023-05-07T14:14:39;13.70;1.00
285;DHT22;127;48.770;9.212;2023-05-07T14:17:12;13.70;1.00
285;DHT22;127;48.770;9.212;2023-05-07T14:19:45;13.70;1.00
285;DHT22;127;48.770;9.212;2023-05-07T14:22:16;13.80;1.00
285;DHT22;127;48.770;9.212;2023-05-07T14:24:45;13.80;1.00
285;DHT22;127;48.770;9.212;2023-05-07T14:27:14;13.90;1.00
285;DHT22;127;48.770;9.212;2023-05-07T14:29:45;13.80;1.00
285;DHT22;127;48.770;9.212;2023-05-07T14:32:24;13.80;1.00
285;DHT22;127;48.770;9.212;2023-05-07T14:34:55;13.80;1.00
285;DHT22;127;48.770;9.212;2023-05-07T14:37:35;13.80;1.00
285;DHT22;127;48.770;9.212;2023-05-07T14:40:11;13.90;1.00
285;DHT22;127;48.770;9.212;2023-05-07T14:42:40;13.90;1.00
285;DHT22;127;48.770;9.212;2023-05-07T14:45:14;14.00;1.00
285;DHT22;127;48.770;9.212;2023-05-07T14:47:51;14.00;1.00
285;DHT22;127;48.770;9.212;2023-05-07T14:50:21;14.00;1.00
285;DHT22;127;48.770;9.212;2023-05-07T14:52:50;14.00;1.00
285;DHT22;127;48.770;9.212;2023-05-07T14:55:19;14.00;1.00
285;DHT22;127;48.770;9.212;2023-05-07T14:57:57;14.00;1.00
285;DHT22;127;48.770;9.212;2023-05-07T15:00:32;14.10;1.00
285;DHT22;127;48.770;9.212;2023-05-07T15:03:06;14.00;1.00
285;DHT22;127;48.770;9.212;2023-05-07T15:05:39;14.10;1.00
285;DHT22;127;48.770;9.212;2023-05-07T15:08:09;14.10;1.00
285;DHT22;127;48.770;9.212;2023-05-07T15:10:40;14.20;1.00
285;DHT22;127;48.770;9.212;2023-05-07T15:13:17;14.30;1.00
285;DHT22;127;48.770;9.212;2023-05-07T15:15:52;14.30;1.00
285;DHT22;127;48.770;9.212;2023-05-07T15:18:26;14.30;1.00
285;DHT22;127;48.770;9.212;2023-05-07T15:21:16;14.30;1.00
285;DHT22;127;48.770;9.212;2023-05-07T15:23:50;14.40;1.00
285;DHT22;127;48.770;9.212;2023-05-07T15:26:19;14.60;1.00
285;DHT22;127;48.770;9.212;2023-05-07T15:29:17;14.70;1.00
285;DHT22;127;48.770;9.212;2023-05-07T15:31:54;14.70;1.00
285;DHT22;127;48.770;9.212;2023-05-07T15:34:23;14.80;1.00
285;DHT22;127;48.770;9.212;2023-05-07T15:36:54;15.00;1.00
285;DHT22;127;48.770;9.212;2023-05-07T15:39:23;15.10;1.00
285;DHT22;127;48.770;9.212;2023-05-07T15:41:52;15.20;1.00
285;DHT22;127;48.770;9.212;2023-05-07T15:44:29;15.40;1.00
285;DHT22;127;48.770;9.212;2023-05-07T15:47:03;15.60;1.00
285;DHT22;127;48.770;9.212;2023-05-07T15:49:34;15.40;1.00
285;DHT22;127;48.770;9.212;2023-05-07T15:52:05;15.60;1.00
285;DHT22;127;48.770;9.212;2023-05-07T15:54:36;15.40;1.00
285;DHT22;127;48.770;9.212;2023-05-07T15:57:51;15.20;1.00
285;DHT22;127;48.770;9.212;2023-05-07T16:00:26;15.10;1.00
285;DHT22;127;48.770;9.212;2023-05-07T16:02:58;15.30;1.00
285;DHT22;127;48.770;9.212;2023-05-07T16:05:32;15.30;1.00
285;DHT22;127;48.770;9.212;2023-05-07T16:08:05;15.20;1.00
285;DHT22;127;48.770;9.212;2023-05-07T16:10:35;15.20;1.00
285;DHT22;127;48.770;9.212;2023-05-07T16:13:11;15.10;1.00
285;DHT22;127;48.770;9.212;2023-05-07T16:15:43;14.90;1.00
285;DHT22;127;48.770;9.212;2023-05-07T16:18:26;14.90;1.00
285;DHT22;127;48.770;9.212;2023-05-07T16:20:58;14.90;1.00
285;DHT22;127;48.770;9.212;2023-05-07T16:23:29;15.00;1.00
285;DHT22;127;48.770;9.212;2023-05-07T16:26:01;15.00;1.00
285;DHT22;127;48.770;9.212;2023-05-07T16:28:33;15.10;1.00
285;DHT22;127;48.770;9.212;2023-05-07T16:31:07;15.20;1.00
285;DHT22;127;48.770;9.212;2023-05-07T16:37:40;15.20;1.00
285;DHT22;127;48.770;9.212;2023-05-07T16:47:29;15.70;1.00
285;DHT22;127;48.770;9.212;2023-05-07T16:49:58;15.60;1.00
285;DHT22;127;48.770;9.212;2023-05-07T16:52:32;15.50;1.00
285;DHT22;127;48.770;9.212;2023-05-07T16:55:06;15.50;1.00
285;DHT22;127;48.770;9.212;2023-05-07T16:57:41;15.50;1.00
285;DHT22;127;48.770;9.212;2023-05-07T17:00:12;15.60;1.00
285;DHT22;127;48.770;9.212;2023-05-07T17:02:53;15.80;1.00
285;DHT22;127;48.770;9.212;2023-05-07T17:05:29;16.00;1.00
285;DHT22;127;48.770;9.212;2023-05-07T17:08:06;15.90;1.00
285;DHT22;127;48.770;9.212;2023-05-07T17:24:20;16.50;1.00
285;DHT22;127;48.770;9.212;2023-05-07T17:26:52;16.50;1.00
285;DHT22;127;48.770;9.212;2023-05-07T17:29:22;16.60;1.00
285;DHT22;127;48.770;9.212;2023-05-07T17:31:51;16.50;1.00
285;DHT22;127;48.770;9.212;2023-05-07T17:34:22;16.60;1.00
285;DHT22;127;48.770;9.212;2023-05-07T17:36:50;16.60;1.00
285;DHT22;127;48.770;9.212;2023-05-07T17:39:28;16.60;1.00
285;DHT22;127;48.770;9.212;2023-05-07T17:41:58;16.60;1.00
285;DHT22;127;48.770;9.212;2023-05-07T17:44:27;16.50;1.00
285;DHT22;127;48.770;9.212;2023-05-07T17:46:58;16.50;1.00
285;DHT22;127;48.770;9.212;2023-05-07T17:49:31;16.40;1.00
285;DHT22;127;48.770;9.212;2023-05-07T17:52:01;16.40;1.00
285;DHT22;127;48.770;9.212;2023-05-07T17:54:38;16.30;1.00
285;DHT22;127;48.770;9.212;2023-05-07T17:57:15;16.30;1.00
285;DHT22;127;48.770;9.212;2023-05-07T17:59:55;16.20;1.00
285;DHT22;127;48.770;9.212;2023-05-07T18:02:24;16.20;1.00
285;DHT22;127;48.770;9.212;2023-05-07T18:04:56;16.00;1.00
285;DHT22;127;48.770;9.212;2023-05-07T18:07:30;15.90;1.00
285;DHT22;127;48.770;9.212;2023-05-07T18:10:08;15.90;1.00